createdAt,value
2023-01-01T00:04:01.627Z,2.87
2023-01-01T00:09:24.113Z,2.70
2023-01-01T00:14:29.462Z,2.43
2023-01-01T00:19:33.655Z,2.57
2023-01-01T00:24:37.283Z,2.17
2023-01-01T00:29:42.874Z,1.70
2023-01-01T00:34:46.531Z,2.53
2023-01-01T00:39:50.759Z,1.80
2023-01-01T00:44:56.081Z,1.50
2023-01-01T00:50:00.150Z,1.87
2023-01-01T00:55:04.374Z,1.80
2023-01-01T01:00:11.508Z,1.67
2023-01-01T01:05:15.188Z,1.83
2023-01-01T01:10:21.594Z,2.00
2023-01-01T01:15:26.752Z,1.53
2023-01-01T01:20:30.545Z,2.13
2023-01-01T01:25:34.210Z,2.07
2023-01-01T01:30:40.474Z,2.30
2023-01-01T01:35:46.906Z,2.00
2023-01-01T01:40:50.953Z,2.13
2023-01-01T01:45:59.972Z,1.53
2023-01-01T01:51:03.662Z,2.40
2023-01-01T01:56:10.140Z,1.97
2023-01-01T02:01:15.633Z,2.30
2023-01-01T02:06:20.378Z,3.00
2023-01-01T02:11:24.238Z,2.40
2023-01-01T02:16:37.955Z,2.70
2023-01-01T02:21:59.202Z,2.63
2023-01-01T02:27:08.269Z,2.17
2023-01-01T02:32:17.825Z,3.23
2023-01-01T02:37:25.103Z,3.20
2023-01-01T02:42:30.420Z,3.17
2023-01-01T02:47:35.384Z,3.40
2023-01-01T02:53:02.935Z,3.37
2023-01-01T02:58:31.158Z,4.40
2023-01-01T03:03:41.562Z,3.17
2023-01-01T03:08:52.847Z,2.83
2023-01-01T03:14:03.614Z,3.07
2023-01-01T03:19:12.323Z,2.53
2023-01-01T03:24:24.089Z,3.20
2023-01-01T03:29:32.726Z,2.80
2023-01-01T03:34:41.584Z,2.87
2023-01-01T03:39:50.749Z,3.03
2023-01-01T03:45:01.738Z,2.90
2023-01-01T03:50:08.324Z,3.37
2023-01-01T03:55:18.303Z,2.93
2023-01-01T04:00:24.670Z,2.57
2023-01-01T04:05:31.159Z,2.90
2023-01-01T04:10:38.073Z,2.57
2023-01-01T04:15:41.696Z,2.43
2023-01-01T04:20:46.702Z,3.43
2023-01-01T04:25:50.300Z,2.90
2023-01-01T04:35:57.800Z,2.03
2023-01-01T04:41:01.923Z,2.33
2023-01-01T04:46:06.071Z,2.20
2023-01-01T04:51:14.199Z,3.20
2023-01-01T04:56:20.584Z,3.07
2023-01-01T05:01:26.184Z,2.70
2023-01-01T05:06:31.525Z,2.80
2023-01-01T05:11:35.105Z,2.30
2023-01-01T05:16:40.475Z,2.63
2023-01-01T05:21:46.715Z,3.23
2023-01-01T05:26:50.372Z,3.27
2023-01-01T05:31:54.274Z,2.93
2023-01-01T05:36:59.322Z,3.47
2023-01-01T05:42:02.945Z,3.80
2023-01-01T05:47:06.539Z,4.33
2023-01-01T05:52:11.796Z,3.50
2023-01-01T05:57:15.366Z,4.00
2023-01-01T06:02:18.985Z,4.10
2023-01-01T06:07:24.043Z,4.10
2023-01-01T06:12:27.742Z,4.10
2023-01-01T06:17:31.370Z,4.90
2023-01-01T06:22:38.725Z,5.00
2023-01-01T06:27:42.268Z,4.60
2023-01-01T06:32:45.795Z,4.90
2023-01-01T06:37:50.759Z,4.67
2023-01-01T06:42:54.263Z,4.50
2023-01-01T06:47:58.599Z,5.77
2023-01-01T06:53:03.893Z,5.10
2023-01-01T06:58:09.953Z,5.60
2023-01-01T07:03:14.088Z,5.40
2023-01-01T07:08:19.081Z,5.60
2023-01-01T07:13:23.149Z,4.80
2023-01-01T07:18:27.095Z,5.67
2023-01-01T07:23:34.598Z,5.90
2023-01-01T07:28:38.139Z,5.63
2023-01-01T07:33:41.848Z,5.40
2023-01-01T07:38:46.859Z,6.03
2023-01-01T07:43:50.447Z,6.60
2023-01-01T07:48:54.245Z,5.67
2023-01-01T07:54:05.686Z,4.87
2023-01-01T07:59:13.395Z,5.10
2023-01-01T08:04:20.622Z,6.57
2023-01-01T08:09:25.744Z,5.50
2023-01-01T08:14:29.467Z,5.77
2023-01-01T08:19:33.031Z,5.60
2023-01-01T08:24:38.133Z,5.53
2023-01-01T08:29:41.999Z,5.40
2023-01-01T08:34:46.683Z,5.40
2023-01-01T08:39:52.277Z,4.53
2023-01-01T08:44:55.998Z,5.10
2023-01-01T08:49:59.811Z,4.67
2023-01-01T08:55:05.143Z,4.80
2023-01-01T09:00:10.445Z,4.40
2023-01-01T09:05:14.189Z,4.03
2023-01-01T09:10:19.317Z,4.60
2023-01-01T09:15:23.099Z,3.67
2023-01-01T09:20:26.725Z,4.50
2023-01-01T09:25:32.484Z,3.90
2023-01-01T09:30:37.191Z,3.77
2023-01-01T09:35:44.229Z,4.07
2023-01-01T09:40:59.368Z,4.10
2023-01-01T09:46:07.191Z,3.87
2023-01-01T09:51:16.760Z,3.50
2023-01-01T09:56:26.944Z,2.80
2023-01-01T10:01:39.660Z,3.50
2023-01-01T10:06:47.972Z,3.10
2023-01-01T10:11:59.766Z,3.40
2023-01-01T10:17:10.396Z,3.13
2023-01-01T10:22:19.907Z,2.90
2023-01-01T10:27:32.070Z,3.30
2023-01-01T10:32:39.301Z,2.53
2023-01-01T10:37:43.487Z,2.90
2023-01-01T10:42:51.208Z,2.80
2023-01-01T10:48:19.472Z,2.70
2023-01-01T10:53:28.121Z,2.73
2023-01-01T10:58:40.668Z,2.57
2023-01-01T11:03:55.999Z,2.50
2023-01-01T11:09:03.519Z,2.57
2023-01-01T11:14:20.901Z,3.10
2023-01-01T11:19:29.127Z,2.73
2023-01-01T11:24:34.196Z,2.87
2023-01-01T11:29:39.570Z,2.50
2023-01-01T11:34:45.127Z,2.70
2023-01-01T11:39:52.651Z,2.17
2023-01-01T11:44:59.688Z,2.60
2023-01-01T11:50:15.025Z,2.40
2023-01-01T11:55:27.334Z,2.70
2023-01-01T12:00:37.058Z,2.10
2023-01-01T12:05:48.145Z,2.90
2023-01-01T12:10:57.039Z,2.40
2023-01-01T12:16:10.660Z,2.70
2023-01-01T12:21:20.451Z,2.50
2023-01-01T12:26:27.676Z,2.60
2023-01-01T12:31:40.085Z,2.70
2023-01-01T12:36:53.855Z,2.70
2023-01-01T12:42:06.054Z,2.20
2023-01-01T12:47:26.249Z,2.63
2023-01-01T12:52:41.446Z,2.30
2023-01-01T12:57:49.800Z,2.00
2023-01-01T13:03:00.323Z,2.10
2023-01-01T13:08:07.480Z,2.50
2023-01-01T13:13:13.196Z,1.80
2023-01-01T13:18:23.639Z,2.50
2023-01-01T13:23:47.924Z,2.00
2023-01-01T13:29:45.253Z,1.70
2023-01-01T13:35:20.634Z,2.63
2023-01-01T13:40:51.052Z,2.17
2023-01-01T13:46:13.606Z,4.67
2023-01-01T13:57:24.719Z,2.33
2023-01-01T14:02:33.400Z,2.90
2023-01-01T14:07:52.637Z,1.77
2023-01-01T14:13:03.800Z,2.00
2023-01-01T14:18:15.411Z,1.87
2023-01-01T14:23:26.474Z,2.80
2023-01-01T14:28:32.488Z,2.23
2023-01-01T14:33:36.394Z,2.27
2023-01-01T14:38:45.344Z,1.80
2023-01-01T14:43:51.945Z,2.20
2023-01-01T14:49:02.242Z,1.83
2023-01-01T14:54:07.690Z,5.50
2023-01-01T14:59:16.684Z,1.63
2023-01-01T15:04:24.007Z,2.30
2023-01-01T15:09:29.841Z,4.43
2023-01-01T15:14:37.549Z,5.23
2023-01-01T15:19:43.095Z,2.20
2023-01-01T15:24:48.016Z,2.50
2023-01-01T15:29:51.870Z,1.60
2023-01-01T15:34:58.601Z,1.63
2023-01-01T15:40:25.723Z,2.10
2023-01-01T15:45:32.349Z,2.07
2023-01-01T15:50:40.315Z,1.93
2023-01-01T15:55:47.735Z,1.67
2023-01-01T16:00:57.302Z,2.30
2023-01-01T16:06:02.618Z,3.30
2023-01-01T16:11:07.789Z,14.37
2023-01-01T16:16:27.925Z,5.47
2023-01-01T16:21:33.235Z,3.10
2023-01-01T16:26:38.395Z,8.20
2023-01-01T16:31:42.329Z,6.80
2023-01-01T16:36:46.661Z,2.73
2023-01-01T16:41:51.733Z,5.83
2023-01-01T16:46:55.389Z,5.60
2023-01-01T16:51:59.032Z,7.50
2023-01-01T16:57:04.687Z,13.87
2023-01-01T17:02:13.914Z,8.83
2023-01-01T17:07:17.863Z,8.27
2023-01-01T17:12:23.265Z,8.40
2023-01-01T17:17:27.031Z,14.30
2023-01-01T17:22:34.497Z,4.97
2023-01-01T17:27:40.071Z,5.50
2023-01-01T17:32:43.905Z,1.97
2023-01-01T17:37:47.893Z,4.00
2023-01-01T17:42:55.068Z,3.70
2023-01-01T17:47:58.697Z,5.37
2023-01-01T17:53:02.628Z,4.03
2023-01-01T17:58:08.677Z,2.97
2023-01-01T18:03:13.708Z,6.53
2023-01-01T18:08:17.367Z,2.60
2023-01-01T18:13:22.951Z,2.90
2023-01-01T18:18:27.122Z,5.13
2023-01-01T18:23:33.896Z,4.20
2023-01-01T18:28:39.469Z,4.10
2023-01-01T18:33:43.735Z,4.10
2023-01-01T18:38:56.372Z,3.30
2023-01-01T18:44:01.864Z,3.53
2023-01-01T18:49:12.029Z,3.13
2023-01-01T18:54:15.676Z,2.97
2023-01-01T18:59:25.858Z,2.60
2023-01-01T19:04:29.572Z,3.20
2023-01-01T19:09:33.422Z,4.50
2023-01-01T19:14:38.566Z,3.80
2023-01-01T19:19:42.246Z,3.43
2023-01-01T19:24:45.976Z,4.93
2023-01-01T19:29:52.227Z,2.70
2023-01-01T19:34:56.688Z,2.33
2023-01-01T19:40:00.672Z,2.27
2023-01-01T19:45:08.298Z,3.50
2023-01-01T19:50:12.693Z,3.70
2023-01-01T19:55:17.310Z,4.13
2023-01-01T20:00:24.677Z,4.40
2023-01-01T20:05:33.321Z,2.17
2023-01-01T20:10:38.706Z,2.40
2023-01-01T20:15:46.836Z,3.47
2023-01-01T20:21:09.542Z,2.83
2023-01-01T20:26:14.007Z,3.40
2023-01-01T20:31:20.327Z,2.37
2023-01-01T20:36:42.209Z,3.77
2023-01-01T20:41:46.068Z,3.10
2023-01-01T20:46:51.242Z,2.90
2023-01-01T20:51:55.476Z,2.83
2023-01-01T20:56:59.574Z,2.20
2023-01-01T21:02:05.126Z,2.00
2023-01-01T21:07:11.252Z,2.13
2023-01-01T21:12:15.344Z,2.23
2023-01-01T21:17:22.980Z,1.97
2023-01-01T21:22:28.976Z,2.17
2023-01-01T21:27:35.235Z,1.77
2023-01-01T21:32:42.860Z,2.70
2023-01-01T21:37:49.861Z,1.70
2023-01-01T21:42:56.602Z,2.23
2023-01-01T21:48:13.719Z,2.10
2023-01-01T21:53:19.541Z,2.50
2023-01-01T21:58:43.674Z,2.40
2023-01-01T22:03:52.613Z,2.60
2023-01-01T22:08:58.561Z,2.90
2023-01-01T22:14:09.384Z,2.77
2023-01-01T22:19:19.051Z,3.10
2023-01-01T22:24:41.082Z,2.80
2023-01-01T22:29:46.062Z,2.27
2023-01-01T22:34:52.238Z,2.70
2023-01-01T22:39:56.034Z,2.57
2023-01-01T22:45:00.392Z,2.30
2023-01-01T22:50:07.792Z,2.37
2023-01-01T22:55:11.439Z,2.53
2023-01-01T23:00:17.196Z,2.47
2023-01-01T23:05:22.392Z,2.13
2023-01-01T23:10:26.265Z,2.37
2023-01-01T23:15:52.299Z,2.30
2023-01-01T23:21:01.869Z,2.17
2023-01-01T23:26:06.646Z,2.27
2023-01-01T23:31:13.106Z,2.03
2023-01-01T23:36:18.110Z,2.20
2023-01-01T23:41:23.319Z,1.40
2023-01-01T23:46:28.171Z,2.20
2023-01-01T23:51:33.905Z,1.80
2023-01-01T23:56:38.293Z,1.70
